EBLG/LGG METAR and TAF weather

Enter ICAO airport designator
Station Type Date Time Source
EBLG METAR 2018/07/20 14:20 UTC NOAA

EBLG 201420Z 28006KT 240V310 9999 SCT029 26/08 Q1013 TEMPO 4500 SHRA


Station Type Date Time Source
EBLG Decoded METAR 2018/07/20 14:20 UTC NOAA

Bierset, Belgium (EBLG) 50-39N 005-27E 178M
Jul 20, 2018 - 10:20 AM EDT / 2018.07.20 1420 UTC
Wind: from the W (280 degrees) at 7 MPH (6 KT) (direction variable):0
Visibility: greater than 7 mile(s):0
Sky conditions: partly cloudy
Temperature: 78 F (26 C)
Dew Point: 46 F (8 C)
Relative Humidity: 31%
Pressure (altimeter): 29.91 in. Hg (1013 hPa)
ob: EBLG 201420Z 28006KT 240V310 9999 SCT029 26/08 Q1013 TEMPO 4500 SHRA
cycle: 14

Station Type Date Time Source
EBLG TAF 2018/07/20 12:27 UTC NOAA

TAF EBLG 201100Z 2012/2118 36005KT 9999 SCT050CB PROB30
TEMPO 2015/2103 VRB15G25KT 4500 SHRA TSRA PROB30
TEMPO 2103/2108 4500 SHRA -TSRA


Example: see airport list